WMT7910 LIPH-LRSV
Flight info
| Callsign | WMT7910 |
|---|---|
| Flight time | 1h 29m |
| Altitude | 11000 |
| Route | INBUT N503 LAREN/N0408F180 Q561 AKADO/N0422F190 L615 TULIK/N0437F350 DCT GORPA/N0438F370 DCT VEBAL DCT PIDON DCT MAVIR DCT BUDOP DCT HUMOR DCT SCV DCT |
| Aircraft | A21N/M-SDE1E2E3FGIJ1J4RWXY/LB1 |
Departure
| Time | 2026-04-28 13:05 |
|---|---|
| Airport | Treviso Airport (LIPH) |
Arrival
| Time | 2026-04-28 14:35 |
|---|---|
| Airport | Suceava Ștefan cel Mare International Airport (LRSV) |
| Time | Latitude | Longitude | Altitude | Speed | Heading |
|---|---|---|---|---|---|
| 2026-04-28 12:32 | 45.65422 | 12.20596 | 65 ft | 0 kts | 340° |
| 2026-04-28 12:54 | 45.65418 | 12.20598 | 66 ft | 3 kts | 341° |
| 2026-04-28 12:54 | 45.65392 | 12.20607 | 67 ft | 4 kts | 358° |
| 2026-04-28 12:54 | 45.65367 | 12.20601 | 63 ft | 4 kts | 34° |
| 2026-04-28 12:55 | 45.65356 | 12.20583 | 65 ft | 0 kts | 69° |
| 2026-04-28 12:59 | 45.65358 | 12.20590 | 66 ft | 2 kts | 69° |
| 2026-04-28 12:59 | 45.65367 | 12.20624 | 64 ft | 5 kts | 69° |
| 2026-04-28 13:00 | 45.65379 | 12.20667 | 61 ft | 6 kts | 73° |
| 2026-04-28 13:00 | 45.65364 | 12.20727 | 61 ft | 8 kts | 144° |
| 2026-04-28 13:00 | 45.65304 | 12.20764 | 64 ft | 11 kts | 160° |
| 2026-04-28 13:00 | 45.65232 | 12.20788 | 68 ft | 10 kts | 204° |
| 2026-04-28 13:01 | 45.65190 | 12.20689 | 68 ft | 13 kts | 251° |
| 2026-04-28 13:01 | 45.65154 | 12.20550 | 62 ft | 17 kts | 248° |
| 2026-04-28 13:01 | 45.65108 | 12.20376 | 64 ft | 20 kts | 249° |
| 2026-04-28 13:01 | 45.65055 | 12.20175 | 65 ft | 23 kts | 249° |
| 2026-04-28 13:02 | 45.64996 | 12.19951 | 63 ft | 25 kts | 249° |
| 2026-04-28 13:02 | 45.64931 | 12.19711 | 66 ft | 27 kts | 249° |
| 2026-04-28 13:02 | 45.64862 | 12.19454 | 67 ft | 29 kts | 249° |
| 2026-04-28 13:02 | 45.64789 | 12.19177 | 70 ft | 31 kts | 249° |
| 2026-04-28 13:03 | 45.64718 | 12.18906 | 70 ft | 27 kts | 249° |
| 2026-04-28 13:03 | 45.64651 | 12.18651 | 68 ft | 28 kts | 249° |
| 2026-04-28 13:03 | 45.64588 | 12.18415 | 70 ft | 25 kts | 249° |
| 2026-04-28 13:03 | 45.64528 | 12.18188 | 69 ft | 19 kts | 249° |
| 2026-04-28 13:04 | 45.64498 | 12.18064 | 68 ft | 12 kts | 261° |
| 2026-04-28 13:04 | 45.64505 | 12.17958 | 75 ft | 10 kts | 258° |
| 2026-04-28 13:04 | 45.64473 | 12.17941 | 75 ft | 6 kts | 145° |
| 2026-04-28 13:04 | 45.64479 | 12.18008 | 66 ft | 9 kts | 69° |
| 2026-04-28 13:05 | 45.64522 | 12.18175 | 66 ft | 48 kts | 69° |
| 2026-04-28 13:05 | 45.64748 | 12.19020 | 69 ft | 130 kts | 70° |
| 2026-04-28 13:05 | 45.65122 | 12.20430 | 359 ft | 159 kts | 69° |
| 2026-04-28 13:05 | 45.65462 | 12.21968 | 1046 ft | 167 kts | 83° |
| 2026-04-28 13:06 | 45.65589 | 12.23663 | 1756 ft | 178 kts | 85° |
| 2026-04-28 13:06 | 45.65525 | 12.25491 | 2445 ft | 193 kts | 105° |
| 2026-04-28 13:06 | 45.64822 | 12.27209 | 3124 ft | 212 kts | 135° |
| 2026-04-28 13:06 | 45.63515 | 12.28243 | 3963 ft | 222 kts | 166° |
| 2026-04-28 13:07 | 45.61967 | 12.28193 | 4921 ft | 227 kts | 197° |
| 2026-04-28 13:07 | 45.60616 | 12.27057 | 5874 ft | 228 kts | 226° |
| 2026-04-28 13:07 | 45.59591 | 12.25333 | 6866 ft | 227 kts | 233° |
| 2026-04-28 13:07 | 45.58581 | 12.23483 | 7527 ft | 245 kts | 233° |
| 2026-04-28 13:08 | 45.57513 | 12.21509 | 8133 ft | 263 kts | 233° |
| 2026-04-28 13:08 | 45.56364 | 12.19389 | 8884 ft | 275 kts | 233° |
| 2026-04-28 13:08 | 45.55182 | 12.17211 | 9800 ft | 280 kts | 233° |
| 2026-04-28 13:08 | 45.53964 | 12.14966 | 10459 ft | 295 kts | 233° |
| 2026-04-28 13:09 | 45.52658 | 12.12552 | 10800 ft | 319 kts | 233° |
| 2026-04-28 13:09 | 45.51253 | 12.09960 | 11127 ft | 342 kts | 233° |
| 2026-04-28 13:09 | 45.49735 | 12.07221 | 11504 ft | 361 kts | 230° |
| 2026-04-28 13:09 | 45.47928 | 12.04651 | 12079 ft | 373 kts | 221° |
| 2026-04-28 13:10 | 45.45786 | 12.02515 | 12857 ft | 379 kts | 211° |
| 2026-04-28 13:10 | 45.43366 | 12.00943 | 13643 ft | 385 kts | 201° |
| 2026-04-28 13:10 | 45.40749 | 12.00021 | 14340 ft | 391 kts | 190° |
| 2026-04-28 13:10 | 45.38010 | 11.99802 | 15036 ft | 398 kts | 180° |
| 2026-04-28 13:11 | 45.35250 | 12.00305 | 15731 ft | 404 kts | 169° |
| 2026-04-28 13:11 | 45.32554 | 12.01549 | 16430 ft | 411 kts | 159° |
| 2026-04-28 13:11 | 45.30028 | 12.03519 | 17139 ft | 419 kts | 148° |
| 2026-04-28 13:11 | 45.27767 | 12.06187 | 17818 ft | 427 kts | 137° |
| 2026-04-28 13:12 | 45.25873 | 12.09469 | 18462 ft | 435 kts | 123° |
| 2026-04-28 13:12 | 45.24627 | 12.13411 | 19026 ft | 442 kts | 107° |
| 2026-04-28 13:12 | 45.24191 | 12.17746 | 19580 ft | 447 kts | 90° |
| 2026-04-28 13:12 | 45.24606 | 12.22126 | 20128 ft | 451 kts | 74° |
| 2026-04-28 13:13 | 45.25472 | 12.26431 | 20680 ft | 455 kts | 72° |
| 2026-04-28 13:13 | 45.26348 | 12.30769 | 21218 ft | 460 kts | 73° |
| 2026-04-28 13:13 | 45.27190 | 12.35175 | 21751 ft | 464 kts | 74° |
| 2026-04-28 13:13 | 45.28002 | 12.39569 | 22278 ft | 469 kts | 74° |
| 2026-04-28 13:14 | 45.28820 | 12.44074 | 22807 ft | 473 kts | 74° |
| 2026-04-28 13:14 | 45.29640 | 12.48624 | 23327 ft | 478 kts | 74° |
| 2026-04-28 13:14 | 45.30469 | 12.53221 | 23794 ft | 483 kts | 74° |
| 2026-04-28 13:14 | 45.31306 | 12.57867 | 24239 ft | 486 kts | 74° |
| 2026-04-28 13:15 | 45.32147 | 12.62544 | 24699 ft | 490 kts | 74° |
| 2026-04-28 13:15 | 45.32987 | 12.67240 | 25170 ft | 493 kts | 74° |
| 2026-04-28 13:15 | 45.33830 | 12.71974 | 25618 ft | 496 kts | 74° |
| 2026-04-28 13:15 | 45.34675 | 12.76738 | 26054 ft | 499 kts | 74° |
| 2026-04-28 13:16 | 45.35523 | 12.81535 | 26494 ft | 501 kts | 74° |
| 2026-04-28 13:16 | 45.36374 | 12.86345 | 27029 ft | 501 kts | 74° |
| 2026-04-28 13:16 | 45.37222 | 12.91142 | 27624 ft | 499 kts | 74° |
| 2026-04-28 13:16 | 45.38062 | 12.95922 | 28204 ft | 498 kts | 74° |
| 2026-04-28 13:17 | 45.38899 | 13.00689 | 28768 ft | 497 kts | 74° |
| 2026-04-28 13:17 | 45.39732 | 13.05459 | 29318 ft | 496 kts | 74° |
| 2026-04-28 13:17 | 45.40560 | 13.10211 | 29864 ft | 495 kts | 74° |
| 2026-04-28 13:17 | 45.41384 | 13.14962 | 30340 ft | 494 kts | 74° |
| 2026-04-28 13:18 | 45.42208 | 13.19719 | 30707 ft | 495 kts | 74° |
| 2026-04-28 13:18 | 45.43034 | 13.24482 | 31108 ft | 495 kts | 74° |
| 2026-04-28 13:18 | 45.43856 | 13.29236 | 31520 ft | 495 kts | 74° |
| 2026-04-28 13:18 | 45.44676 | 13.33995 | 31958 ft | 494 kts | 74° |
| 2026-04-28 13:19 | 45.45492 | 13.38748 | 32386 ft | 493 kts | 74° |
| 2026-04-28 13:19 | 45.46303 | 13.43491 | 32765 ft | 493 kts | 74° |
| 2026-04-28 13:19 | 45.47105 | 13.48185 | 33127 ft | 492 kts | 74° |
| 2026-04-28 13:19 | 45.47911 | 13.52921 | 33514 ft | 492 kts | 74° |
| 2026-04-28 13:20 | 45.48714 | 13.57653 | 33880 ft | 491 kts | 74° |
| 2026-04-28 13:20 | 45.49511 | 13.62378 | 34212 ft | 491 kts | 74° |
| 2026-04-28 13:20 | 45.50307 | 13.67098 | 34548 ft | 489 kts | 73° |
| 2026-04-28 13:20 | 45.51101 | 13.71810 | 34877 ft | 488 kts | 73° |
| 2026-04-28 13:21 | 45.51891 | 13.76526 | 35206 ft | 487 kts | 73° |
| 2026-04-28 13:21 | 45.52675 | 13.81214 | 35518 ft | 486 kts | 73° |
| 2026-04-28 13:21 | 45.53459 | 13.85906 | 35809 ft | 486 kts | 73° |
| 2026-04-28 13:21 | 45.54240 | 13.90591 | 36085 ft | 485 kts | 73° |
| 2026-04-28 13:22 | 45.55018 | 13.95262 | 36368 ft | 484 kts | 73° |
| 2026-04-28 13:22 | 45.55793 | 13.99943 | 36634 ft | 484 kts | 73° |
| 2026-04-28 13:22 | 45.56565 | 14.04614 | 36922 ft | 482 kts | 73° |
| 2026-04-28 13:22 | 45.57331 | 14.09264 | 37095 ft | 482 kts | 73° |
| 2026-04-28 13:23 | 45.58098 | 14.13922 | 37110 ft | 481 kts | 73° |
| 2026-04-28 13:23 | 45.59622 | 14.23226 | 37090 ft | 481 kts | 73° |
| 2026-04-28 13:24 | 45.61134 | 14.32529 | 37084 ft | 481 kts | 73° |
| 2026-04-28 13:24 | 45.62642 | 14.41835 | 37088 ft | 481 kts | 73° |
| 2026-04-28 13:25 | 45.64141 | 14.51155 | 37113 ft | 481 kts | 74° |
| 2026-04-28 13:25 | 45.65628 | 14.60447 | 37101 ft | 482 kts | 74° |
| 2026-04-28 13:26 | 45.67115 | 14.69806 | 37100 ft | 483 kts | 73° |
| 2026-04-28 13:26 | 45.68599 | 14.79183 | 37103 ft | 483 kts | 74° |
| 2026-04-28 13:27 | 45.70072 | 14.88561 | 37104 ft | 483 kts | 74° |
| 2026-04-28 13:27 | 45.71526 | 14.97948 | 37107 ft | 483 kts | 74° |
| 2026-04-28 13:28 | 45.72989 | 15.07342 | 37112 ft | 483 kts | 74° |
| 2026-04-28 13:28 | 45.74442 | 15.16728 | 37113 ft | 483 kts | 74° |
| 2026-04-28 13:29 | 45.75868 | 15.26064 | 37109 ft | 483 kts | 74° |
| 2026-04-28 13:29 | 45.77290 | 15.35476 | 37111 ft | 484 kts | 76° |
| 2026-04-28 13:30 | 45.78460 | 15.44979 | 37110 ft | 484 kts | 77° |
| 2026-04-28 13:30 | 45.79598 | 15.54488 | 37115 ft | 485 kts | 77° |
| 2026-04-28 13:31 | 45.81302 | 15.68765 | 37115 ft | 485 kts | 77° |
| 2026-04-28 13:31 | 45.82401 | 15.78307 | 37114 ft | 485 kts | 77° |
| 2026-04-28 13:32 | 45.83500 | 15.87788 | 37114 ft | 485 kts | 77° |
| 2026-04-28 13:32 | 45.84606 | 15.97319 | 37135 ft | 485 kts | 77° |
| 2026-04-28 13:33 | 45.85728 | 16.06883 | 37118 ft | 487 kts | 77° |
| 2026-04-28 13:33 | 45.86840 | 16.16467 | 37109 ft | 487 kts | 77° |
| 2026-04-28 13:34 | 45.87906 | 16.26071 | 37117 ft | 487 kts | 77° |
| 2026-04-28 13:34 | 45.88996 | 16.35658 | 37117 ft | 487 kts | 77° |
| 2026-04-28 13:35 | 45.90067 | 16.45273 | 37127 ft | 487 kts | 77° |
| 2026-04-28 13:35 | 45.91128 | 16.54893 | 37120 ft | 488 kts | 78° |
| 2026-04-28 13:36 | 45.92171 | 16.64528 | 37119 ft | 488 kts | 78° |
| 2026-04-28 13:36 | 45.93222 | 16.74158 | 37125 ft | 488 kts | 77° |
| 2026-04-28 13:37 | 45.94290 | 16.83792 | 37141 ft | 489 kts | 77° |
| 2026-04-28 13:37 | 45.95323 | 16.93399 | 37126 ft | 490 kts | 78° |
| 2026-04-28 13:38 | 45.96352 | 17.03076 | 37119 ft | 490 kts | 78° |
| 2026-04-28 13:38 | 45.97371 | 17.12766 | 37121 ft | 490 kts | 78° |
| 2026-04-28 13:39 | 45.98381 | 17.22460 | 37124 ft | 490 kts | 78° |
| 2026-04-28 13:39 | 45.99537 | 17.32098 | 37129 ft | 487 kts | 72° |
| 2026-04-28 13:40 | 46.01174 | 17.41545 | 37127 ft | 487 kts | 71° |
| 2026-04-28 13:40 | 46.02807 | 17.51002 | 37126 ft | 487 kts | 72° |
| 2026-04-28 13:41 | 46.04425 | 17.60487 | 37136 ft | 489 kts | 72° |
| 2026-04-28 13:41 | 46.06023 | 17.69951 | 37132 ft | 490 kts | 72° |
| 2026-04-28 13:42 | 46.07620 | 17.79496 | 37135 ft | 490 kts | 72° |
| 2026-04-28 13:42 | 46.09213 | 17.89051 | 37136 ft | 490 kts | 72° |
| 2026-04-28 13:43 | 46.10808 | 17.98607 | 37138 ft | 491 kts | 72° |
| 2026-04-28 13:43 | 46.12379 | 18.08189 | 37140 ft | 491 kts | 72° |
| 2026-04-28 13:44 | 46.13961 | 18.17763 | 37153 ft | 491 kts | 72° |
| 2026-04-28 13:44 | 46.15279 | 18.25733 | 37146 ft | 492 kts | 72° |
| 2026-04-28 13:45 | 46.17115 | 18.36920 | 37145 ft | 493 kts | 72° |
| 2026-04-28 13:45 | 46.18436 | 18.44978 | 37143 ft | 493 kts | 72° |
| 2026-04-28 13:46 | 46.20000 | 18.54609 | 37141 ft | 493 kts | 72° |
| 2026-04-28 13:46 | 46.21544 | 18.64191 | 37141 ft | 493 kts | 72° |
| 2026-04-28 13:47 | 46.23093 | 18.73891 | 37142 ft | 492 kts | 72° |
| 2026-04-28 13:47 | 46.24613 | 18.83465 | 37160 ft | 493 kts | 72° |
| 2026-04-28 13:48 | 46.26140 | 18.93119 | 37136 ft | 494 kts | 72° |
| 2026-04-28 13:48 | 46.27663 | 19.02810 | 37133 ft | 494 kts | 72° |
| 2026-04-28 13:49 | 46.29174 | 19.12484 | 37135 ft | 494 kts | 72° |
| 2026-04-28 13:49 | 46.30676 | 19.22188 | 37141 ft | 494 kts | 72° |
| 2026-04-28 13:50 | 46.32172 | 19.31888 | 37142 ft | 494 kts | 72° |
| 2026-04-28 13:50 | 46.33659 | 19.41599 | 37144 ft | 494 kts | 72° |
| 2026-04-28 13:51 | 46.35126 | 19.51253 | 37153 ft | 494 kts | 72° |
| 2026-04-28 13:51 | 46.36601 | 19.60977 | 37146 ft | 494 kts | 72° |
| 2026-04-28 13:52 | 46.38062 | 19.70706 | 37150 ft | 494 kts | 72° |
| 2026-04-28 13:52 | 46.39514 | 19.80438 | 37151 ft | 494 kts | 72° |
| 2026-04-28 13:53 | 46.41188 | 19.90064 | 37150 ft | 492 kts | 70° |
| 2026-04-28 13:53 | 46.42890 | 19.99677 | 37151 ft | 492 kts | 70° |
| 2026-04-28 13:54 | 46.44592 | 20.09233 | 37169 ft | 492 kts | 70° |
| 2026-04-28 13:54 | 46.46301 | 20.18849 | 37156 ft | 492 kts | 70° |
| 2026-04-28 13:55 | 46.47982 | 20.28477 | 37154 ft | 492 kts | 70° |
| 2026-04-28 13:55 | 46.49689 | 20.38103 | 37149 ft | 492 kts | 70° |
| 2026-04-28 13:56 | 46.51400 | 20.47718 | 37143 ft | 492 kts | 70° |
| 2026-04-28 13:56 | 46.53095 | 20.57364 | 37157 ft | 492 kts | 70° |
| 2026-04-28 13:57 | 46.54775 | 20.67012 | 37174 ft | 492 kts | 70° |
| 2026-04-28 13:57 | 46.56448 | 20.76658 | 37149 ft | 493 kts | 70° |
| 2026-04-28 13:58 | 46.58102 | 20.86272 | 37147 ft | 493 kts | 70° |
| 2026-04-28 13:58 | 46.59754 | 20.95958 | 37149 ft | 493 kts | 70° |
| 2026-04-28 13:59 | 46.61396 | 21.05644 | 37148 ft | 493 kts | 70° |
| 2026-04-28 13:59 | 46.63026 | 21.15329 | 37149 ft | 493 kts | 70° |
| 2026-04-28 14:00 | 46.64653 | 21.25024 | 37182 ft | 493 kts | 70° |
| 2026-04-28 14:00 | 46.66274 | 21.34723 | 37160 ft | 493 kts | 71° |
| 2026-04-28 14:01 | 46.67881 | 21.44437 | 37153 ft | 493 kts | 71° |
| 2026-04-28 14:01 | 46.69665 | 21.54044 | 37150 ft | 490 kts | 67° |
| 2026-04-28 14:02 | 46.71650 | 21.63487 | 37150 ft | 490 kts | 67° |
| 2026-04-28 14:02 | 46.73637 | 21.72974 | 37152 ft | 489 kts | 67° |
| 2026-04-28 14:03 | 46.75604 | 21.82475 | 37154 ft | 489 kts | 67° |
| 2026-04-28 14:03 | 46.77562 | 21.91973 | 37160 ft | 489 kts | 67° |
| 2026-04-28 14:04 | 46.79523 | 22.01489 | 37157 ft | 489 kts | 67° |
| 2026-04-28 14:04 | 46.81484 | 22.11014 | 37154 ft | 490 kts | 67° |
| 2026-04-28 14:05 | 46.83435 | 22.20513 | 37157 ft | 487 kts | 68° |
| 2026-04-28 14:05 | 46.85373 | 22.30003 | 37149 ft | 487 kts | 68° |
| 2026-04-28 14:06 | 46.87300 | 22.39498 | 37155 ft | 487 kts | 68° |
| 2026-04-28 14:06 | 46.89215 | 22.49004 | 37145 ft | 487 kts | 68° |
| 2026-04-28 14:07 | 46.91120 | 22.58506 | 37149 ft | 487 kts | 68° |
| 2026-04-28 14:07 | 46.93007 | 22.67968 | 37145 ft | 487 kts | 69° |
| 2026-04-28 14:08 | 46.94896 | 22.77484 | 37143 ft | 486 kts | 69° |
| 2026-04-28 14:08 | 46.96775 | 22.86994 | 37145 ft | 486 kts | 69° |
| 2026-04-28 14:09 | 46.98650 | 22.96530 | 37162 ft | 487 kts | 69° |
| 2026-04-28 14:09 | 47.00515 | 23.06067 | 37152 ft | 487 kts | 69° |
| 2026-04-28 14:10 | 47.02378 | 23.15634 | 37146 ft | 487 kts | 69° |
| 2026-04-28 14:10 | 47.04242 | 23.25186 | 37152 ft | 487 kts | 69° |
| 2026-04-28 14:11 | 47.06112 | 23.34731 | 37152 ft | 488 kts | 70° |
| 2026-04-28 14:11 | 47.07946 | 23.44322 | 37173 ft | 488 kts | 70° |
| 2026-04-28 14:12 | 47.09763 | 23.53868 | 37154 ft | 489 kts | 70° |
| 2026-04-28 14:12 | 47.11589 | 23.63495 | 37162 ft | 490 kts | 70° |
| 2026-04-28 14:13 | 47.13409 | 23.73139 | 37158 ft | 490 kts | 70° |
| 2026-04-28 14:13 | 47.15221 | 23.82791 | 37158 ft | 490 kts | 70° |
| 2026-04-28 14:14 | 47.17025 | 23.92447 | 37159 ft | 490 kts | 70° |
| 2026-04-28 14:14 | 47.18819 | 24.02105 | 37179 ft | 489 kts | 70° |
| 2026-04-28 14:15 | 47.20587 | 24.11670 | 37158 ft | 488 kts | 70° |
| 2026-04-28 14:15 | 47.22361 | 24.21310 | 37158 ft | 492 kts | 70° |
| 2026-04-28 14:16 | 47.24126 | 24.31020 | 36808 ft | 490 kts | 72° |
| 2026-04-28 14:16 | 47.24838 | 24.35958 | 35855 ft | 495 kts | 73° |
| 2026-04-28 14:16 | 47.25711 | 24.40852 | 35003 ft | 494 kts | 69° |
| 2026-04-28 14:17 | 47.26690 | 24.45710 | 34164 ft | 496 kts | 68° |
| 2026-04-28 14:17 | 47.27641 | 24.50592 | 33226 ft | 498 kts | 69° |
| 2026-04-28 14:17 | 47.28558 | 24.55522 | 32372 ft | 499 kts | 70° |
| 2026-04-28 14:17 | 47.29272 | 24.60535 | 31527 ft | 502 kts | 75° |
| 2026-04-28 14:18 | 47.29912 | 24.65585 | 30683 ft | 501 kts | 73° |
| 2026-04-28 14:18 | 47.30666 | 24.70598 | 29664 ft | 501 kts | 72° |
| 2026-04-28 14:18 | 47.31514 | 24.75595 | 28571 ft | 502 kts | 71° |
| 2026-04-28 14:18 | 47.32466 | 24.80532 | 27488 ft | 500 kts | 66° |
| 2026-04-28 14:19 | 47.33615 | 24.85365 | 26467 ft | 499 kts | 66° |
| 2026-04-28 14:19 | 47.34676 | 24.90239 | 25532 ft | 498 kts | 69° |
| 2026-04-28 14:19 | 47.35617 | 24.95143 | 24658 ft | 496 kts | 71° |
| 2026-04-28 14:19 | 47.36489 | 25.00043 | 23813 ft | 492 kts | 72° |
| 2026-04-28 14:20 | 47.37335 | 25.04909 | 22860 ft | 486 kts | 72° |
| 2026-04-28 14:20 | 47.38164 | 25.09707 | 21948 ft | 478 kts | 72° |
| 2026-04-28 14:20 | 47.38982 | 25.14420 | 21039 ft | 469 kts | 72° |
| 2026-04-28 14:20 | 47.39787 | 25.19034 | 20185 ft | 459 kts | 72° |
| 2026-04-28 14:21 | 47.40689 | 25.23490 | 19379 ft | 446 kts | 66° |
| 2026-04-28 14:21 | 47.41732 | 25.27745 | 18632 ft | 436 kts | 67° |
| 2026-04-28 14:21 | 47.42650 | 25.31970 | 17850 ft | 427 kts | 70° |
| 2026-04-28 14:21 | 47.43441 | 25.36109 | 17106 ft | 422 kts | 71° |
| 2026-04-28 14:22 | 47.44184 | 25.40289 | 16384 ft | 419 kts | 72° |
| 2026-04-28 14:22 | 47.44902 | 25.44448 | 15713 ft | 415 kts | 72° |
| 2026-04-28 14:22 | 47.45607 | 25.48576 | 15057 ft | 412 kts | 72° |
| 2026-04-28 14:22 | 47.46304 | 25.52666 | 14391 ft | 410 kts | 73° |
| 2026-04-28 14:23 | 47.46996 | 25.56732 | 13701 ft | 407 kts | 73° |
| 2026-04-28 14:23 | 47.47684 | 25.60782 | 12994 ft | 404 kts | 73° |
| 2026-04-28 14:23 | 47.48364 | 25.64793 | 12351 ft | 401 kts | 74° |
| 2026-04-28 14:23 | 47.49035 | 25.68764 | 11746 ft | 393 kts | 74° |
| 2026-04-28 14:24 | 47.49681 | 25.72600 | 11387 ft | 375 kts | 75° |
| 2026-04-28 14:24 | 47.50295 | 25.76258 | 11105 ft | 357 kts | 75° |
| 2026-04-28 14:24 | 47.50800 | 25.79762 | 10864 ft | 341 kts | 82° |
| 2026-04-28 14:24 | 47.50926 | 25.83183 | 10509 ft | 325 kts | 89° |
| 2026-04-28 14:25 | 47.50959 | 25.86447 | 10034 ft | 311 kts | 90° |
| 2026-04-28 14:25 | 47.50993 | 25.89594 | 9452 ft | 302 kts | 89° |
| 2026-04-28 14:25 | 47.50914 | 25.92666 | 8738 ft | 296 kts | 96° |
| 2026-04-28 14:25 | 47.50729 | 25.95633 | 8020 ft | 291 kts | 94° |
| 2026-04-28 14:26 | 47.50620 | 25.98597 | 7315 ft | 286 kts | 91° |
| 2026-04-28 14:26 | 47.50581 | 26.01513 | 6624 ft | 281 kts | 89° |
| 2026-04-28 14:26 | 47.50583 | 26.04377 | 5899 ft | 275 kts | 87° |
| 2026-04-28 14:26 | 47.50608 | 26.07173 | 5498 ft | 268 kts | 87° |
| 2026-04-28 14:27 | 47.50641 | 26.09861 | 5290 ft | 254 kts | 86° |
| 2026-04-28 14:27 | 47.50678 | 26.12409 | 5122 ft | 241 kts | 86° |
| 2026-04-28 14:27 | 47.50715 | 26.14823 | 4938 ft | 229 kts | 86° |
| 2026-04-28 14:27 | 47.50752 | 26.17129 | 4756 ft | 222 kts | 86° |
| 2026-04-28 14:28 | 47.50790 | 26.19401 | 4609 ft | 221 kts | 85° |
| 2026-04-28 14:28 | 47.50829 | 26.21667 | 4463 ft | 220 kts | 85° |
| 2026-04-28 14:28 | 47.50873 | 26.23927 | 4341 ft | 219 kts | 85° |
| 2026-04-28 14:28 | 47.50925 | 26.26174 | 4190 ft | 219 kts | 84° |
| 2026-04-28 14:29 | 47.50988 | 26.28417 | 4055 ft | 218 kts | 85° |
| 2026-04-28 14:29 | 47.51039 | 26.30634 | 3925 ft | 216 kts | 85° |
| 2026-04-28 14:29 | 47.51078 | 26.32781 | 3772 ft | 201 kts | 85° |
| 2026-04-28 14:29 | 47.51112 | 26.34811 | 3631 ft | 196 kts | 85° |
| 2026-04-28 14:30 | 47.51144 | 26.36826 | 3495 ft | 197 kts | 86° |
| 2026-04-28 14:30 | 47.51177 | 26.38858 | 3371 ft | 196 kts | 82° |
| 2026-04-28 14:30 | 47.51549 | 26.40737 | 3223 ft | 189 kts | 51° |
| 2026-04-28 14:30 | 47.52534 | 26.41928 | 3093 ft | 183 kts | 19° |
| 2026-04-28 14:31 | 47.53740 | 26.42167 | 2993 ft | 166 kts | 351° |
| 2026-04-28 14:31 | 47.54788 | 26.41788 | 3000 ft | 150 kts | 339° |
| 2026-04-28 14:31 | 47.55769 | 26.41299 | 3004 ft | 148 kts | 341° |
| 2026-04-28 14:31 | 47.56764 | 26.40839 | 3002 ft | 151 kts | 341° |
| 2026-04-28 14:32 | 47.57766 | 26.40384 | 3013 ft | 149 kts | 341° |
| 2026-04-28 14:32 | 47.58754 | 26.39936 | 3009 ft | 149 kts | 341° |
| 2026-04-28 14:32 | 47.59750 | 26.39485 | 2989 ft | 151 kts | 342° |
| 2026-04-28 14:32 | 47.60756 | 26.39030 | 2872 ft | 149 kts | 342° |
| 2026-04-28 14:33 | 47.61725 | 26.38592 | 2691 ft | 144 kts | 342° |
| 2026-04-28 14:33 | 47.62624 | 26.38185 | 2514 ft | 123 kts | 342° |
| 2026-04-28 14:33 | 47.63417 | 26.37826 | 2341 ft | 117 kts | 342° |
| 2026-04-28 14:33 | 47.64186 | 26.37477 | 2159 ft | 116 kts | 342° |
| 2026-04-28 14:34 | 47.65734 | 26.36763 | 1811 ft | 117 kts | 340° |
| 2026-04-28 14:34 | 47.66513 | 26.36405 | 1671 ft | 118 kts | 340° |
| 2026-04-28 14:34 | 47.67038 | 26.36170 | 1569 ft | 121 kts | 341° |
| 2026-04-28 14:35 | 47.67844 | 26.35808 | 1417 ft | 119 kts | 341° |
| 2026-04-28 14:35 | 47.68602 | 26.35463 | 1366 ft | 103 kts | 342° |
| 2026-04-28 14:35 | 47.69096 | 26.35243 | 1362 ft | 45 kts | 343° |
| 2026-04-28 14:35 | 47.69339 | 26.35131 | 1363 ft | 35 kts | 343° |
| 2026-04-28 14:36 | 47.69536 | 26.35043 | 1364 ft | 17 kts | 343° |
| 2026-04-28 14:36 | 47.69623 | 26.34970 | 1363 ft | 7 kts | 313° |
| 2026-04-28 14:36 | 47.69653 | 26.34992 | 1363 ft | 6 kts | 109° |
| 2026-04-28 14:36 | 47.69599 | 26.35015 | 1363 ft | 11 kts | 165° |
| 2026-04-28 14:37 | 47.69502 | 26.35058 | 1364 ft | 18 kts | 163° |
| 2026-04-28 14:37 | 47.69359 | 26.35123 | 1364 ft | 24 kts | 163° |
| 2026-04-28 14:37 | 47.69181 | 26.35204 | 1363 ft | 29 kts | 162° |
| 2026-04-28 14:37 | 47.68985 | 26.35295 | 1363 ft | 31 kts | 163° |
| 2026-04-28 14:38 | 47.68777 | 26.35390 | 1365 ft | 29 kts | 163° |
| 2026-04-28 14:38 | 47.68655 | 26.35443 | 1366 ft | 12 kts | 165° |
| 2026-04-28 14:38 | 47.68573 | 26.35472 | 1366 ft | 11 kts | 183° |
| 2026-04-28 14:38 | 47.68529 | 26.35408 | 1365 ft | 8 kts | 250° |
| 2026-04-28 14:39 | 47.68519 | 26.35337 | 1364 ft | 8 kts | 258° |
| 2026-04-28 14:39 | 47.68535 | 26.35251 | 1363 ft | 11 kts | 329° |
| 2026-04-28 14:39 | 47.68603 | 26.35220 | 1364 ft | 8 kts | 346° |
| 2026-04-28 14:39 | 47.68638 | 26.35161 | 1364 ft | 6 kts | 285° |
| 2026-04-28 14:40 | 47.68643 | 26.35127 | 1364 ft | 2 kts | 280° |
| 2026-04-28 14:40 | 47.68645 | 26.35110 | 1364 ft | 2 kts | 280° |
| 2026-04-28 14:40 | 47.68645 | 26.35109 | 1364 ft | 0 kts | 280° |